sensor_id;sensor_type;location;lat;lon;timestamp;P1;durP1;ratioP1;P2;durP2;ratioP2
57071;SDS011;42956;51.366;11.298;2024-02-26T00:01:10;7.78;;;5.40;;
57071;SDS011;42956;51.366;11.298;2024-02-26T00:03:41;8.35;;;6.13;;
57071;SDS011;42956;51.366;11.298;2024-02-26T00:06:13;7.50;;;5.50;;
57071;SDS011;42956;51.366;11.298;2024-02-26T00:08:43;7.45;;;5.13;;
57071;SDS011;42956;51.366;11.298;2024-02-26T00:11:13;7.65;;;5.60;;
57071;SDS011;42956;51.366;11.298;2024-02-26T00:13:42;7.35;;;5.28;;
57071;SDS011;42956;51.366;11.298;2024-02-26T00:16:15;10.90;;;5.15;;
57071;SDS011;42956;51.366;11.298;2024-02-26T00:18:45;8.18;;;5.22;;
57071;SDS011;42956;51.366;11.298;2024-02-26T00:21:16;7.47;;;5.75;;
57071;SDS011;42956;51.366;11.298;2024-02-26T00:23:46;6.20;;;5.43;;
57071;SDS011;42956;51.366;11.298;2024-02-26T00:26:16;9.02;;;6.50;;
57071;SDS011;42956;51.366;11.298;2024-02-26T00:28:46;7.63;;;5.80;;
57071;SDS011;42956;51.366;11.298;2024-02-26T00:31:19;6.18;;;5.32;;
57071;SDS011;42956;51.366;11.298;2024-02-26T00:33:48;9.70;;;6.60;;
57071;SDS011;42956;51.366;11.298;2024-02-26T00:36:19;8.45;;;6.03;;
57071;SDS011;42956;51.366;11.298;2024-02-26T00:38:49;8.77;;;6.93;;
57071;SDS011;42956;51.366;11.298;2024-02-26T00:41:20;10.55;;;6.47;;
57071;SDS011;42956;51.366;11.298;2024-02-26T00:43:50;12.07;;;7.03;;
57071;SDS011;42956;51.366;11.298;2024-02-26T00:46:23;9.95;;;6.95;;
57071;SDS011;42956;51.366;11.298;2024-02-26T00:48:52;8.00;;;6.45;;
57071;SDS011;42956;51.366;11.298;2024-02-26T00:51:23;10.75;;;7.07;;
57071;SDS011;42956;51.366;11.298;2024-02-26T00:53:53;15.52;;;7.38;;
57071;SDS011;42956;51.366;11.298;2024-02-26T00:56:23;12.35;;;7.45;;
57071;SDS011;42956;51.366;11.298;2024-02-26T00:58:53;9.63;;;7.80;;
57071;SDS011;42956;51.366;11.298;2024-02-26T01:01:26;13.35;;;7.55;;
57071;SDS011;42956;51.366;11.298;2024-02-26T01:03:56;11.75;;;7.63;;
57071;SDS011;42956;51.366;11.298;2024-02-26T01:06:26;9.68;;;7.47;;
57071;SDS011;42956;51.366;11.298;2024-02-26T01:08:56;12.85;;;7.70;;
57071;SDS011;42956;51.366;11.298;2024-02-26T01:11:26;14.75;;;8.20;;
57071;SDS011;42956;51.366;11.298;2024-02-26T01:13:56;13.63;;;8.32;;
57071;SDS011;42956;51.366;11.298;2024-02-26T01:16:29;11.55;;;7.35;;
57071;SDS011;42956;51.366;11.298;2024-02-26T01:18:59;11.13;;;8.20;;
57071;SDS011;42956;51.366;11.298;2024-02-26T01:21:29;11.20;;;8.25;;
57071;SDS011;42956;51.366;11.298;2024-02-26T01:23:59;13.50;;;8.05;;
57071;SDS011;42956;51.366;11.298;2024-02-26T01:26:29;10.75;;;7.63;;
57071;SDS011;42956;51.366;11.298;2024-02-26T01:28:59;9.32;;;7.25;;
57071;SDS011;42956;51.366;11.298;2024-02-26T01:31:31;9.43;;;6.63;;
57071;SDS011;42956;51.366;11.298;2024-02-26T01:34:01;10.90;;;7.25;;
57071;SDS011;42956;51.366;11.298;2024-02-26T01:36:31;11.00;;;7.80;;
57071;SDS011;42956;51.366;11.298;2024-02-26T01:39:01;13.88;;;8.77;;
57071;SDS011;42956;51.366;11.298;2024-02-26T01:41:31;11.50;;;8.05;;
57071;SDS011;42956;51.366;11.298;2024-02-26T01:44:01;11.32;;;7.78;;
57071;SDS011;42956;51.366;11.298;2024-02-26T01:46:34;11.38;;;8.00;;
57071;SDS011;42956;51.366;11.298;2024-02-26T01:49:05;14.07;;;7.50;;
57071;SDS011;42956;51.366;11.298;2024-02-26T01:51:35;12.80;;;7.82;;
57071;SDS011;42956;51.366;11.298;2024-02-26T01:54:05;13.05;;;8.50;;
57071;SDS011;42956;51.366;11.298;2024-02-26T01:56:37;12.65;;;8.82;;
57071;SDS011;42956;51.366;11.298;2024-02-26T01:59:07;11.82;;;8.63;;
57071;SDS011;42956;51.366;11.298;2024-02-26T02:01:40;12.02;;;8.45;;
57071;SDS011;42956;51.366;11.298;2024-02-26T02:04:14;11.88;;;8.13;;
57071;SDS011;42956;51.366;11.298;2024-02-26T02:06:44;13.30;;;8.55;;
57071;SDS011;42956;51.366;11.298;2024-02-26T02:09:15;12.30;;;7.85;;
57071;SDS011;42956;51.366;11.298;2024-02-26T02:11:45;13.65;;;9.20;;
57071;SDS011;42956;51.366;11.298;2024-02-26T02:14:16;13.07;;;8.45;;
57071;SDS011;42956;51.366;11.298;2024-02-26T02:16:49;15.50;;;9.32;;
57071;SDS011;42956;51.366;11.298;2024-02-26T02:19:19;16.17;;;10.55;;
57071;SDS011;42956;51.366;11.298;2024-02-26T02:21:51;17.50;;;9.10;;
57071;SDS011;42956;51.366;11.298;2024-02-26T02:24:22;15.98;;;9.73;;
57071;SDS011;42956;51.366;11.298;2024-02-26T02:26:51;12.20;;;9.23;;
57071;SDS011;42956;51.366;11.298;2024-02-26T02:29:22;14.75;;;9.88;;
57071;SDS011;42956;51.366;11.298;2024-02-26T02:31:52;17.60;;;10.18;;
57071;SDS011;42956;51.366;11.298;2024-02-26T02:34:21;17.00;;;10.43;;
57071;SDS011;42956;51.366;11.298;2024-02-26T02:36:54;16.15;;;9.98;;
57071;SDS011;42956;51.366;11.298;2024-02-26T02:39:24;15.45;;;10.48;;
57071;SDS011;42956;51.366;11.298;2024-02-26T02:41:54;19.42;;;10.75;;
57071;SDS011;42956;51.366;11.298;2024-02-26T02:44:24;18.15;;;10.68;;
57071;SDS011;42956;51.366;11.298;2024-02-26T02:46:54;15.48;;;10.48;;
57071;SDS011;42956;51.366;11.298;2024-02-26T02:49:24;16.52;;;10.57;;
57071;SDS011;42956;51.366;11.298;2024-02-26T02:51:56;17.85;;;11.10;;
57071;SDS011;42956;51.366;11.298;2024-02-26T02:54:26;22.65;;;12.60;;
57071;SDS011;42956;51.366;11.298;2024-02-26T02:56:56;19.05;;;11.73;;
57071;SDS011;42956;51.366;11.298;2024-02-26T02:59:26;22.08;;;14.43;;
57071;SDS011;42956;51.366;11.298;2024-02-26T03:01:57;21.83;;;13.73;;
57071;SDS011;42956;51.366;11.298;2024-02-26T03:04:26;20.40;;;13.45;;
57071;SDS011;42956;51.366;11.298;2024-02-26T03:06:59;17.15;;;11.88;;
57071;SDS011;42956;51.366;11.298;2024-02-26T03:09:30;22.83;;;12.30;;
57071;SDS011;42956;51.366;11.298;2024-02-26T03:12:00;17.75;;;13.00;;
57071;SDS011;42956;51.366;11.298;2024-02-26T03:14:30;20.38;;;12.27;;
57071;SDS011;42956;51.366;11.298;2024-02-26T03:17:00;20.45;;;13.18;;
57071;SDS011;42956;51.366;11.298;2024-02-26T03:19:30;21.27;;;14.13;;
57071;SDS011;42956;51.366;11.298;2024-02-26T03:22:03;20.02;;;14.02;;
57071;SDS011;42956;51.366;11.298;2024-02-26T03:24:33;24.80;;;15.70;;
57071;SDS011;42956;51.366;11.298;2024-02-26T03:27:03;27.83;;;18.00;;
57071;SDS011;42956;51.366;11.298;2024-02-26T03:29:36;31.33;;;18.48;;
57071;SDS011;42956;51.366;11.298;2024-02-26T03:32:06;29.60;;;19.40;;
57071;SDS011;42956;51.366;11.298;2024-02-26T03:34:36;32.90;;;20.13;;
57071;SDS011;42956;51.366;11.298;2024-02-26T03:37:10;30.95;;;19.98;;
57071;SDS011;42956;51.366;11.298;2024-02-26T03:39:40;27.25;;;18.42;;
57071;SDS011;42956;51.366;11.298;2024-02-26T03:42:09;30.75;;;19.42;;
57071;SDS011;42956;51.366;11.298;2024-02-26T03:44:40;35.88;;;19.92;;
57071;SDS011;42956;51.366;11.298;2024-02-26T03:47:10;36.65;;;22.15;;
57071;SDS011;42956;51.366;11.298;2024-02-26T03:49:39;33.33;;;20.63;;
57071;SDS011;42956;51.366;11.298;2024-02-26T03:52:12;31.48;;;20.20;;
57071;SDS011;42956;51.366;11.298;2024-02-26T03:54:42;30.85;;;17.92;;
57071;SDS011;42956;51.366;11.298;2024-02-26T03:57:12;27.45;;;18.23;;
57071;SDS011;42956;51.366;11.298;2024-02-26T03:59:42;25.85;;;18.08;;
57071;SDS011;42956;51.366;11.298;2024-02-26T04:02:12;28.95;;;20.33;;
57071;SDS011;42956;51.366;11.298;2024-02-26T04:04:42;31.25;;;19.42;;
57071;SDS011;42956;51.366;11.298;2024-02-26T04:07:14;34.70;;;20.08;;
57071;SDS011;42956;51.366;11.298;2024-02-26T04:09:44;34.30;;;20.55;;
57071;SDS011;42956;51.366;11.298;2024-02-26T04:12:14;35.22;;;22.73;;
57071;SDS011;42956;51.366;11.298;2024-02-26T04:14:45;38.10;;;23.80;;
57071;SDS011;42956;51.366;11.298;2024-02-26T04:17:15;39.00;;;24.23;;
57071;SDS011;42956;51.366;11.298;2024-02-26T04:19:45;40.83;;;23.02;;
57071;SDS011;42956;51.366;11.298;2024-02-26T04:22:17;37.50;;;22.98;;
57071;SDS011;42956;51.366;11.298;2024-02-26T04:24:47;42.08;;;24.90;;
57071;SDS011;42956;51.366;11.298;2024-02-26T04:27:17;40.17;;;23.33;;
57071;SDS011;42956;51.366;11.298;2024-02-26T04:29:47;39.78;;;23.38;;
57071;SDS011;42956;51.366;11.298;2024-02-26T04:32:17;37.05;;;23.58;;
57071;SDS011;42956;51.366;11.298;2024-02-26T04:34:47;37.70;;;23.25;;
57071;SDS011;42956;51.366;11.298;2024-02-26T04:37:20;39.92;;;25.20;;
57071;SDS011;42956;51.366;11.298;2024-02-26T04:39:50;42.83;;;27.83;;
57071;SDS011;42956;51.366;11.298;2024-02-26T04:42:20;48.88;;;28.70;;
57071;SDS011;42956;51.366;11.298;2024-02-26T04:44:50;47.20;;;29.40;;
57071;SDS011;42956;51.366;11.298;2024-02-26T04:47:20;44.08;;;28.40;;
57071;SDS011;42956;51.366;11.298;2024-02-26T04:49:51;41.97;;;26.77;;
57071;SDS011;42956;51.366;11.298;2024-02-26T04:52:25;52.03;;;30.75;;
57071;SDS011;42956;51.366;11.298;2024-02-26T04:54:55;56.97;;;32.58;;
57071;SDS011;42956;51.366;11.298;2024-02-26T04:57:27;52.22;;;30.95;;
57071;SDS011;42956;51.366;11.298;2024-02-26T04:59:57;54.45;;;30.23;;
57071;SDS011;42956;51.366;11.298;2024-02-26T05:02:27;51.83;;;28.27;;
57071;SDS011;42956;51.366;11.298;2024-02-26T05:04:59;42.28;;;26.20;;
57071;SDS011;42956;51.366;11.298;2024-02-26T05:07:32;38.65;;;24.55;;
57071;SDS011;42956;51.366;11.298;2024-02-26T05:10:02;44.10;;;24.38;;
57071;SDS011;42956;51.366;11.298;2024-02-26T05:12:32;41.80;;;26.27;;
57071;SDS011;42956;51.366;11.298;2024-02-26T05:15:03;38.70;;;22.90;;
57071;SDS011;42956;51.366;11.298;2024-02-26T05:17:33;40.25;;;23.70;;
57071;SDS011;42956;51.366;11.298;2024-02-26T05:20:03;49.38;;;26.60;;
57071;SDS011;42956;51.366;11.298;2024-02-26T05:22:37;42.42;;;24.63;;
57071;SDS011;42956;51.366;11.298;2024-02-26T05:25:07;44.80;;;27.27;;
57071;SDS011;42956;51.366;11.298;2024-02-26T05:27:37;45.92;;;27.58;;
57071;SDS011;42956;51.366;11.298;2024-02-26T05:30:07;41.55;;;23.25;;
57071;SDS011;42956;51.366;11.298;2024-02-26T05:32:37;37.03;;;22.20;;
57071;SDS011;42956;51.366;11.298;2024-02-26T05:35:08;35.60;;;23.30;;
57071;SDS011;42956;51.366;11.298;2024-02-26T05:37:41;39.10;;;23.30;;
57071;SDS011;42956;51.366;11.298;2024-02-26T05:40:11;36.50;;;22.52;;
57071;SDS011;42956;51.366;11.298;2024-02-26T05:42:41;33.95;;;21.30;;
57071;SDS011;42956;51.366;11.298;2024-02-26T05:45:11;39.45;;;22.55;;
57071;SDS011;42956;51.366;11.298;2024-02-26T05:47:41;35.85;;;22.25;;
57071;SDS011;42956;51.366;11.298;2024-02-26T05:50:12;33.63;;;22.52;;
57071;SDS011;42956;51.366;11.298;2024-02-26T05:52:45;32.88;;;22.02;;
57071;SDS011;42956;51.366;11.298;2024-02-26T05:55:15;36.75;;;22.02;;
57071;SDS011;42956;51.366;11.298;2024-02-26T05:57:45;34.67;;;21.42;;
57071;SDS011;42956;51.366;11.298;2024-02-26T06:00:16;33.17;;;21.42;;
57071;SDS011;42956;51.366;11.298;2024-02-26T06:02:46;31.80;;;20.80;;
57071;SDS011;42956;51.366;11.298;2024-02-26T06:05:16;35.05;;;21.48;;
57071;SDS011;42956;51.366;11.298;2024-02-26T06:07:49;37.45;;;22.20;;
57071;SDS011;42956;51.366;11.298;2024-02-26T06:10:19;33.65;;;20.05;;
57071;SDS011;42956;51.366;11.298;2024-02-26T06:12:49;31.98;;;20.23;;
57071;SDS011;42956;51.366;11.298;2024-02-26T06:15:19;30.67;;;19.33;;
57071;SDS011;42956;51.366;11.298;2024-02-26T06:17:49;30.40;;;18.92;;
57071;SDS011;42956;51.366;11.298;2024-02-26T06:20:20;33.15;;;20.48;;
57071;SDS011;42956;51.366;11.298;2024-02-26T06:22:53;34.45;;;18.95;;
57071;SDS011;42956;51.366;11.298;2024-02-26T06:27:52;26.58;;;17.60;;
57071;SDS011;42956;51.366;11.298;2024-02-26T06:30:22;28.15;;;19.17;;
57071;SDS011;42956;51.366;11.298;2024-02-26T06:32:52;32.58;;;20.83;;
57071;SDS011;42956;51.366;11.298;2024-02-26T06:35:22;31.40;;;19.92;;
57071;SDS011;42956;51.366;11.298;2024-02-26T06:37:55;33.10;;;22.90;;
57071;SDS011;42956;51.366;11.298;2024-02-26T06:40:25;31.23;;;20.00;;
57071;SDS011;42956;51.366;11.298;2024-02-26T06:42:55;33.55;;;22.73;;
57071;SDS011;42956;51.366;11.298;2024-02-26T06:45:25;37.80;;;22.92;;
57071;SDS011;42956;51.366;11.298;2024-02-26T06:47:54;36.80;;;22.15;;
57071;SDS011;42956;51.366;11.298;2024-02-26T06:50:25;36.92;;;21.90;;
57071;SDS011;42956;51.366;11.298;2024-02-26T06:52:57;33.60;;;21.35;;
57071;SDS011;42956;51.366;11.298;2024-02-26T06:55:27;31.90;;;21.48;;
57071;SDS011;42956;51.366;11.298;2024-02-26T06:57:57;37.08;;;22.40;;
57071;SDS011;42956;51.366;11.298;2024-02-26T07:00:27;36.80;;;24.38;;
57071;SDS011;42956;51.366;11.298;2024-02-26T07:02:57;34.05;;;22.70;;
57071;SDS011;42956;51.366;11.298;2024-02-26T07:05:30;39.17;;;24.27;;
57071;SDS011;42956;51.366;11.298;2024-02-26T07:08:03;45.88;;;26.45;;
57071;SDS011;42956;51.366;11.298;2024-02-26T07:10:32;36.40;;;24.83;;
57071;SDS011;42956;51.366;11.298;2024-02-26T07:13:03;38.38;;;25.52;;
57071;SDS011;42956;51.366;11.298;2024-02-26T07:15:33;45.25;;;26.70;;
57071;SDS011;42956;51.366;11.298;2024-02-26T07:18:03;36.67;;;24.27;;
57071;SDS011;42956;51.366;11.298;2024-02-26T07:20:33;38.70;;;24.95;;
57071;SDS011;42956;51.366;11.298;2024-02-26T07:23:05;37.88;;;24.88;;
57071;SDS011;42956;51.366;11.298;2024-02-26T07:25:38;36.38;;;24.30;;
57071;SDS011;42956;51.366;11.298;2024-02-26T07:28:14;42.65;;;25.73;;
57071;SDS011;42956;51.366;11.298;2024-02-26T07:30:44;44.67;;;26.33;;
57071;SDS011;42956;51.366;11.298;2024-02-26T07:33:14;41.25;;;24.98;;
57071;SDS011;42956;51.366;11.298;2024-02-26T07:35:44;40.92;;;25.35;;
57071;SDS011;42956;51.366;11.298;2024-02-26T07:38:17;32.13;;;22.52;;
57071;SDS011;42956;51.366;11.298;2024-02-26T07:41:02;33.10;;;22.65;;
57071;SDS011;42956;51.366;11.298;2024-02-26T07:43:32;35.92;;;22.83;;
57071;SDS011;42956;51.366;11.298;2024-02-26T07:46:02;37.30;;;23.73;;
57071;SDS011;42956;51.366;11.298;2024-02-26T07:48:32;47.53;;;27.55;;
57071;SDS011;42956;51.366;11.298;2024-02-26T07:51:02;43.45;;;25.83;;
57071;SDS011;42956;51.366;11.298;2024-02-26T07:53:35;35.05;;;23.02;;
57071;SDS011;42956;51.366;11.298;2024-02-26T07:56:08;33.17;;;23.48;;
57071;SDS011;42956;51.366;11.298;2024-02-26T07:58:38;33.92;;;24.30;;
57071;SDS011;42956;51.366;11.298;2024-02-26T08:01:08;41.60;;;25.73;;
57071;SDS011;42956;51.366;11.298;2024-02-26T08:03:37;39.97;;;27.50;;
57071;SDS011;42956;51.366;11.298;2024-02-26T08:06:10;40.90;;;25.67;;
57071;SDS011;42956;51.366;11.298;2024-02-26T08:08:42;41.28;;;23.75;;
57071;SDS011;42956;51.366;11.298;2024-02-26T08:13:42;34.90;;;22.58;;
57071;SDS011;42956;51.366;11.298;2024-02-26T08:16:12;35.45;;;23.15;;
57071;SDS011;42956;51.366;11.298;2024-02-26T08:18:45;36.40;;;22.55;;
57071;SDS011;42956;51.366;11.298;2024-02-26T08:21:15;39.78;;;22.83;;
57071;SDS011;42956;51.366;11.298;2024-02-26T08:23:48;35.28;;;22.40;;
57071;SDS011;42956;51.366;11.298;2024-02-26T08:26:18;35.85;;;23.27;;
57071;SDS011;42956;51.366;11.298;2024-02-26T08:28:49;32.05;;;22.13;;
57071;SDS011;42956;51.366;11.298;2024-02-26T08:31:19;34.67;;;22.85;;
57071;SDS011;42956;51.366;11.298;2024-02-26T08:33:50;34.33;;;22.77;;
57071;SDS011;42956;51.366;11.298;2024-02-26T08:36:20;31.98;;;22.13;;
57071;SDS011;42956;51.366;11.298;2024-02-26T08:38:53;31.05;;;22.45;;
57071;SDS011;42956;51.366;11.298;2024-02-26T08:41:23;31.48;;;20.40;;
57071;SDS011;42956;51.366;11.298;2024-02-26T08:43:52;30.35;;;21.17;;
57071;SDS011;42956;51.366;11.298;2024-02-26T08:46:22;32.95;;;21.38;;
57071;SDS011;42956;51.366;11.298;2024-02-26T08:48:52;33.08;;;22.10;;
57071;SDS011;42956;51.366;11.298;2024-02-26T08:51:22;32.58;;;21.00;;
57071;SDS011;42956;51.366;11.298;2024-02-26T08:53:54;28.02;;;20.60;;
57071;SDS011;42956;51.366;11.298;2024-02-26T08:56:24;31.00;;;20.13;;
57071;SDS011;42956;51.366;11.298;2024-02-26T08:58:54;28.67;;;20.48;;
57071;SDS011;42956;51.366;11.298;2024-02-26T09:01:23;28.80;;;20.02;;
57071;SDS011;42956;51.366;11.298;2024-02-26T09:03:53;30.65;;;20.33;;
57071;SDS011;42956;51.366;11.298;2024-02-26T09:06:24;28.23;;;18.35;;
57071;SDS011;42956;51.366;11.298;2024-02-26T09:08:56;30.35;;;20.65;;
57071;SDS011;42956;51.366;11.298;2024-02-26T09:11:28;30.52;;;19.58;;
57071;SDS011;42956;51.366;11.298;2024-02-26T09:13:58;32.53;;;21.98;;
57071;SDS011;42956;51.366;11.298;2024-02-26T09:16:28;31.95;;;23.27;;
57071;SDS011;42956;51.366;11.298;2024-02-26T09:18:58;32.03;;;22.50;;
57071;SDS011;42956;51.366;11.298;2024-02-26T09:21:30;34.05;;;21.75;;
57071;SDS011;42956;51.366;11.298;2024-02-26T09:24:03;40.95;;;24.23;;
57071;SDS011;42956;51.366;11.298;2024-02-26T09:26:34;31.60;;;21.45;;
57071;SDS011;42956;51.366;11.298;2024-02-26T09:29:04;27.05;;;18.67;;
57071;SDS011;42956;51.366;11.298;2024-02-26T09:31:35;26.58;;;18.80;;
57071;SDS011;42956;51.366;11.298;2024-02-26T09:34:07;27.58;;;19.38;;
57071;SDS011;42956;51.366;11.298;2024-02-26T09:36:37;25.13;;;19.42;;
57071;SDS011;42956;51.366;11.298;2024-02-26T09:39:09;28.35;;;18.27;;
57071;SDS011;42956;51.366;11.298;2024-02-26T09:41:45;31.10;;;18.83;;
57071;SDS011;42956;51.366;11.298;2024-02-26T09:44:16;25.13;;;18.10;;
57071;SDS011;42956;51.366;11.298;2024-02-26T09:46:48;25.02;;;17.77;;
57071;SDS011;42956;51.366;11.298;2024-02-26T09:49:18;25.02;;;18.75;;
57071;SDS011;42956;51.366;11.298;2024-02-26T09:51:49;26.83;;;18.70;;
57071;SDS011;42956;51.366;11.298;2024-02-26T09:54:22;29.30;;;18.95;;
57071;SDS011;42956;51.366;11.298;2024-02-26T09:56:55;27.33;;;18.98;;
57071;SDS011;42956;51.366;11.298;2024-02-26T09:59:33;27.75;;;19.58;;
57071;SDS011;42956;51.366;11.298;2024-02-26T10:02:07;36.13;;;22.08;;
57071;SDS011;42956;51.366;11.298;2024-02-26T10:04:39;35.47;;;23.48;;
57071;SDS011;42956;51.366;11.298;2024-02-26T10:07:15;31.92;;;22.30;;
57071;SDS011;42956;51.366;11.298;2024-02-26T10:09:48;30.63;;;22.48;;
57071;SDS011;42956;51.366;11.298;2024-02-26T10:12:17;37.97;;;26.92;;
57071;SDS011;42956;51.366;11.298;2024-02-26T10:14:48;31.45;;;23.27;;
57071;SDS011;42956;51.366;11.298;2024-02-26T10:17:18;35.28;;;24.50;;
57071;SDS011;42956;51.366;11.298;2024-02-26T10:19:48;32.20;;;22.60;;
57071;SDS011;42956;51.366;11.298;2024-02-26T10:22:22;29.30;;;21.67;;
57071;SDS011;42956;51.366;11.298;2024-02-26T10:24:54;31.75;;;21.85;;
57071;SDS011;42956;51.366;11.298;2024-02-26T10:27:24;30.63;;;20.08;;
57071;SDS011;42956;51.366;11.298;2024-02-26T10:29:56;27.17;;;20.15;;
57071;SDS011;42956;51.366;11.298;2024-02-26T10:32:26;25.92;;;20.13;;
57071;SDS011;42956;51.366;11.298;2024-02-26T10:34:56;30.58;;;19.08;;
57071;SDS011;42956;51.366;11.298;2024-02-26T10:37:26;27.05;;;18.50;;
57071;SDS011;42956;51.366;11.298;2024-02-26T10:39:59;27.25;;;19.63;;
57071;SDS011;42956;51.366;11.298;2024-02-26T10:42:30;27.85;;;19.45;;
57071;SDS011;42956;51.366;11.298;2024-02-26T10:44:59;30.70;;;19.25;;
57071;SDS011;42956;51.366;11.298;2024-02-26T10:47:30;25.25;;;18.40;;
57071;SDS011;42956;51.366;11.298;2024-02-26T10:50:00;26.60;;;18.95;;
57071;SDS011;42956;51.366;11.298;2024-02-26T10:52:31;30.60;;;19.77;;
57071;SDS011;42956;51.366;11.298;2024-02-26T10:55:05;26.70;;;19.52;;
57071;SDS011;42956;51.366;11.298;2024-02-26T10:57:37;22.90;;;17.45;;
57071;SDS011;42956;51.366;11.298;2024-02-26T11:00:08;26.65;;;17.63;;
57071;SDS011;42956;51.366;11.298;2024-02-26T11:02:40;25.20;;;18.55;;
57071;SDS011;42956;51.366;11.298;2024-02-26T11:05:10;26.33;;;17.58;;
57071;SDS011;42956;51.366;11.298;2024-02-26T11:07:41;24.83;;;18.65;;
57071;SDS011;42956;51.366;11.298;2024-02-26T11:10:14;22.17;;;17.10;;
57071;SDS011;42956;51.366;11.298;2024-02-26T11:12:44;21.65;;;17.75;;
57071;SDS011;42956;51.366;11.298;2024-02-26T11:15:15;22.60;;;16.90;;
57071;SDS011;42956;51.366;11.298;2024-02-26T11:17:46;25.50;;;18.00;;
57071;SDS011;42956;51.366;11.298;2024-02-26T11:20:17;25.67;;;17.58;;
57071;SDS011;42956;51.366;11.298;2024-02-26T11:22:49;28.70;;;17.00;;
57071;SDS011;42956;51.366;11.298;2024-02-26T11:25:21;20.73;;;17.20;;
57071;SDS011;42956;51.366;11.298;2024-02-26T11:27:53;30.52;;;17.52;;
57071;SDS011;42956;51.366;11.298;2024-02-26T11:30:25;24.50;;;18.13;;
57071;SDS011;42956;51.366;11.298;2024-02-26T11:32:55;22.45;;;17.00;;
57071;SDS011;42956;51.366;11.298;2024-02-26T11:35:26;25.27;;;17.70;;
57071;SDS011;42956;51.366;11.298;2024-02-26T11:37:58;25.92;;;18.75;;
57071;SDS011;42956;51.366;11.298;2024-02-26T11:40:31;27.23;;;20.38;;
57071;SDS011;42956;51.366;11.298;2024-02-26T11:43:01;23.95;;;18.65;;
57071;SDS011;42956;51.366;11.298;2024-02-26T11:48:19;25.35;;;16.30;;
57071;SDS011;42956;51.366;11.298;2024-02-26T11:50:50;20.75;;;15.82;;
57071;SDS011;42956;51.366;11.298;2024-02-26T11:53:21;23.10;;;16.52;;
57071;SDS011;42956;51.366;11.298;2024-02-26T11:58:41;21.30;;;15.18;;
57071;SDS011;42956;51.366;11.298;2024-02-26T12:03:56;18.90;;;14.52;;
57071;SDS011;42956;51.366;11.298;2024-02-26T12:06:26;22.10;;;14.30;;
57071;SDS011;42956;51.366;11.298;2024-02-26T12:08:56;19.90;;;14.77;;
57071;SDS011;42956;51.366;11.298;2024-02-26T12:11:27;21.33;;;14.57;;
57071;SDS011;42956;51.366;11.298;2024-02-26T12:13:59;21.05;;;14.57;;
57071;SDS011;42956;51.366;11.298;2024-02-26T12:16:35;21.38;;;14.50;;
57071;SDS011;42956;51.366;11.298;2024-02-26T12:19:07;44.42;;;26.88;;
57071;SDS011;42956;51.366;11.298;2024-02-26T12:21:37;37.05;;;21.88;;
57071;SDS011;42956;51.366;11.298;2024-02-26T12:24:10;19.27;;;13.48;;
57071;SDS011;42956;51.366;11.298;2024-02-26T12:26:42;17.45;;;14.13;;
57071;SDS011;42956;51.366;11.298;2024-02-26T12:29:14;15.45;;;11.52;;
57071;SDS011;42956;51.366;11.298;2024-02-26T12:31:44;17.33;;;13.57;;
57071;SDS011;42956;51.366;11.298;2024-02-26T12:34:15;16.52;;;12.98;;
57071;SDS011;42956;51.366;11.298;2024-02-26T12:36:45;15.32;;;12.25;;
57071;SDS011;42956;51.366;11.298;2024-02-26T12:39:15;15.30;;;13.20;;
57071;SDS011;42956;51.366;11.298;2024-02-26T12:41:47;14.93;;;11.82;;
57071;SDS011;42956;51.366;11.298;2024-02-26T12:44:20;15.30;;;11.65;;
57071;SDS011;42956;51.366;11.298;2024-02-26T12:46:59;15.55;;;12.38;;
57071;SDS011;42956;51.366;11.298;2024-02-26T12:49:30;16.63;;;12.43;;
57071;SDS011;42956;51.366;11.298;2024-02-26T12:52:00;17.30;;;11.52;;
57071;SDS011;42956;51.366;11.298;2024-02-26T12:54:31;16.23;;;12.45;;
57071;SDS011;42956;51.366;11.298;2024-02-26T12:57:01;20.25;;;13.07;;
57071;SDS011;42956;51.366;11.298;2024-02-26T12:59:36;18.42;;;13.25;;
57071;SDS011;42956;51.366;11.298;2024-02-26T13:04:36;19.50;;;13.20;;
57071;SDS011;42956;51.366;11.298;2024-02-26T13:07:07;17.85;;;14.18;;
57071;SDS011;42956;51.366;11.298;2024-02-26T13:09:37;17.33;;;14.07;;
57071;SDS011;42956;51.366;11.298;2024-02-26T13:12:08;17.80;;;13.73;;
57071;SDS011;42956;51.366;11.298;2024-02-26T13:14:41;19.30;;;14.27;;
57071;SDS011;42956;51.366;11.298;2024-02-26T13:17:11;22.52;;;13.48;;
57071;SDS011;42956;51.366;11.298;2024-02-26T13:19:48;16.95;;;13.07;;
57071;SDS011;42956;51.366;11.298;2024-02-26T13:22:20;20.75;;;14.95;;
57071;SDS011;42956;51.366;11.298;2024-02-26T13:24:53;19.77;;;14.95;;
57071;SDS011;42956;51.366;11.298;2024-02-26T13:27:23;22.60;;;15.40;;
57071;SDS011;42956;51.366;11.298;2024-02-26T13:30:07;24.05;;;15.68;;
57071;SDS011;42956;51.366;11.298;2024-02-26T13:32:38;21.42;;;15.23;;
57071;SDS011;42956;51.366;11.298;2024-02-26T13:35:13;22.60;;;15.38;;
57071;SDS011;42956;51.366;11.298;2024-02-26T13:37:43;23.90;;;15.75;;
57071;SDS011;42956;51.366;11.298;2024-02-26T13:40:13;23.30;;;14.48;;
57071;SDS011;42956;51.366;11.298;2024-02-26T13:42:43;19.05;;;15.15;;
57071;SDS011;42956;51.366;11.298;2024-02-26T13:45:15;22.33;;;15.52;;
57071;SDS011;42956;51.366;11.298;2024-02-26T13:47:45;19.30;;;15.07;;
57071;SDS011;42956;51.366;11.298;2024-02-26T13:50:15;25.55;;;15.80;;
57071;SDS011;42956;51.366;11.298;2024-02-26T13:52:47;20.60;;;16.50;;
57071;SDS011;42956;51.366;11.298;2024-02-26T13:55:20;22.02;;;15.95;;
57071;SDS011;42956;51.366;11.298;2024-02-26T13:57:52;23.60;;;15.50;;
57071;SDS011;42956;51.366;11.298;2024-02-26T14:00:26;26.25;;;16.83;;
57071;SDS011;42956;51.366;11.298;2024-02-26T14:02:57;24.55;;;18.10;;
57071;SDS011;42956;51.366;11.298;2024-02-26T14:05:27;25.13;;;17.77;;
57071;SDS011;42956;51.366;11.298;2024-02-26T14:07:57;27.45;;;18.70;;
57071;SDS011;42956;51.366;11.298;2024-02-26T14:10:28;34.88;;;23.55;;
57071;SDS011;42956;51.366;11.298;2024-02-26T14:12:59;35.10;;;23.08;;
57071;SDS011;42956;51.366;11.298;2024-02-26T14:15:32;28.48;;;20.48;;
57071;SDS011;42956;51.366;11.298;2024-02-26T14:18:03;29.02;;;20.15;;
57071;SDS011;42956;51.366;11.298;2024-02-26T14:20:33;27.40;;;19.90;;
57071;SDS011;42956;51.366;11.298;2024-02-26T14:23:03;24.58;;;18.10;;
57071;SDS011;42956;51.366;11.298;2024-02-26T14:25:33;25.27;;;18.83;;
57071;SDS011;42956;51.366;11.298;2024-02-26T14:28:04;24.92;;;18.85;;
57071;SDS011;42956;51.366;11.298;2024-02-26T14:30:39;26.90;;;17.63;;
57071;SDS011;42956;51.366;11.298;2024-02-26T14:33:11;22.45;;;16.67;;
57071;SDS011;42956;51.366;11.298;2024-02-26T14:35:41;21.13;;;17.52;;
57071;SDS011;42956;51.366;11.298;2024-02-26T14:38:11;23.35;;;18.65;;
57071;SDS011;42956;51.366;11.298;2024-02-26T14:40:42;21.63;;;17.27;;
57071;SDS011;42956;51.366;11.298;2024-02-26T14:43:12;22.45;;;16.48;;
57071;SDS011;42956;51.366;11.298;2024-02-26T14:45:47;30.17;;;17.13;;
57071;SDS011;42956;51.366;11.298;2024-02-26T14:48:17;24.30;;;17.52;;